createdAt,value
2019-03-20T00:00:59.209Z,9.63
2019-03-20T00:03:47.852Z,9.95
2019-03-20T00:06:36.283Z,9.00
2019-03-20T00:09:24.747Z,9.43
2019-03-20T00:12:13.210Z,13.83
2019-03-20T00:15:01.326Z,9.53
2019-03-20T00:17:49.833Z,10.87
2019-03-20T00:20:38.374Z,11.57
2019-03-20T00:23:27.514Z,8.58
2019-03-20T00:26:16.393Z,7.17
2019-03-20T00:29:05.024Z,6.00
2019-03-20T00:31:53.900Z,7.23
2019-03-20T00:34:43.046Z,7.85
2019-03-20T00:37:31.996Z,11.63
2019-03-20T00:40:20.247Z,9.98
2019-03-20T00:43:08.874Z,7.33
2019-03-20T00:45:57.877Z,6.70
2019-03-20T00:48:46.668Z,8.65
2019-03-20T00:51:35.748Z,6.40
2019-03-20T00:54:23.985Z,17.27
2019-03-20T00:57:12.796Z,15.90
2019-03-20T01:00:01.256Z,22.07
2019-03-20T01:02:50.180Z,13.95
2019-03-20T01:05:39.025Z,8.98
2019-03-20T01:08:28.075Z,9.90
2019-03-20T01:11:16.147Z,11.25
2019-03-20T01:14:04.242Z,9.68
2019-03-20T01:16:53.378Z,8.80
2019-03-20T01:19:41.887Z,13.18
2019-03-20T01:22:30.566Z,8.93
2019-03-20T01:25:19.240Z,8.03
2019-03-20T01:28:07.707Z,6.53
2019-03-20T01:30:55.915Z,6.40
2019-03-20T01:33:44.707Z,9.38
2019-03-20T01:36:33.546Z,8.08
2019-03-20T01:39:22.084Z,7.30
2019-03-20T01:42:10.310Z,15.58
2019-03-20T01:44:59.068Z,8.50
2019-03-20T01:47:47.486Z,8.45
2019-03-20T01:50:35.747Z,6.28
2019-03-20T01:53:24.698Z,8.80
2019-03-20T01:56:13.178Z,5.17
2019-03-20T01:59:02.840Z,8.13
2019-03-20T02:01:52.125Z,6.75
2019-03-20T02:04:40.366Z,5.60
2019-03-20T02:07:29.286Z,7.05
2019-03-20T02:10:17.786Z,8.05
2019-03-20T02:13:06.573Z,7.33
2019-03-20T02:15:54.884Z,9.30
2019-03-20T02:18:43.246Z,10.15
2019-03-20T02:21:31.270Z,10.70
2019-03-20T02:24:20.365Z,6.83
2019-03-20T02:27:10.030Z,6.15
2019-03-20T02:29:59.022Z,6.03
2019-03-20T02:32:47.147Z,6.22
2019-03-20T02:35:50.275Z,5.33
2019-03-20T02:38:25.793Z,12.98
2019-03-20T02:41:14.470Z,9.55
2019-03-20T02:44:02.360Z,7.62
2019-03-20T02:46:51.012Z,6.55
2019-03-20T02:49:39.881Z,5.78
2019-03-20T02:52:28.755Z,5.45
2019-03-20T02:55:17.930Z,9.23
2019-03-20T02:58:06.522Z,7.08
2019-03-20T03:00:55.413Z,7.53
2019-03-20T03:03:44.074Z,7.10
2019-03-20T03:06:33.033Z,8.15
2019-03-20T03:09:21.653Z,5.72
2019-03-20T03:12:13.305Z,5.33
2019-03-20T03:15:02.098Z,5.85
2019-03-20T03:17:50.651Z,8.07
2019-03-20T03:20:38.931Z,7.58
2019-03-20T03:23:27.343Z,9.63
2019-03-20T03:26:16.127Z,8.95
2019-03-20T03:29:04.760Z,5.53
2019-03-20T03:31:53.164Z,10.15
2019-03-20T03:34:41.535Z,6.92
2019-03-20T03:37:30.128Z,9.08
2019-03-20T03:40:18.847Z,9.20
2019-03-20T03:43:06.903Z,6.53
2019-03-20T03:45:55.434Z,6.40
2019-03-20T03:48:44.172Z,7.62
2019-03-20T03:51:33.417Z,8.03
2019-03-20T03:54:22.046Z,7.33
2019-03-20T03:57:10.609Z,6.47
2019-03-20T03:59:59.408Z,5.00
2019-03-20T04:02:48.224Z,7.35
2019-03-20T04:05:37.422Z,5.58
2019-03-20T04:08:26.382Z,8.28
2019-03-20T04:11:14.432Z,8.20
2019-03-20T04:14:03.560Z,7.15
2019-03-20T04:16:51.946Z,6.33
2019-03-20T04:19:40.858Z,9.30
2019-03-20T04:22:29.475Z,9.43
2019-03-20T04:25:18.958Z,7.87
2019-03-20T04:28:06.784Z,9.38
2019-03-20T04:30:54.926Z,7.37
2019-03-20T04:33:43.719Z,13.03
2019-03-20T04:36:31.773Z,6.35
2019-03-20T04:39:20.835Z,6.42
2019-03-20T04:42:09.560Z,6.67
2019-03-20T04:44:58.168Z,5.42
2019-03-20T04:47:46.487Z,12.93
2019-03-20T04:50:35.340Z,5.17
2019-03-20T04:53:23.409Z,7.83
2019-03-20T04:56:12.697Z,8.23
2019-03-20T04:59:01.114Z,5.60
2019-03-20T05:01:49.892Z,6.30
2019-03-20T05:04:38.478Z,8.33
2019-03-20T05:07:27.210Z,7.58
2019-03-20T05:10:15.433Z,6.17
2019-03-20T05:13:04.351Z,6.53
2019-03-20T05:15:53.026Z,6.20
2019-03-20T05:18:41.888Z,7.95
2019-03-20T05:21:30.724Z,10.98
2019-03-20T05:24:19.247Z,7.70
2019-03-20T05:27:08.210Z,8.53
2019-03-20T05:29:57.177Z,5.92
2019-03-20T05:32:45.983Z,8.47
2019-03-20T05:35:34.565Z,7.60
2019-03-20T05:38:23.162Z,10.80
2019-03-20T05:41:12.096Z,7.90
2019-03-20T05:44:01.139Z,9.43
2019-03-20T05:46:49.668Z,6.10
2019-03-20T05:49:38.425Z,7.92
2019-03-20T05:52:26.876Z,9.55
2019-03-20T05:55:15.342Z,8.00
2019-03-20T05:58:04.173Z,7.70
2019-03-20T06:00:52.697Z,14.73
2019-03-20T06:03:41.339Z,8.93
2019-03-20T06:06:29.765Z,8.70
2019-03-20T06:09:18.395Z,8.83
2019-03-20T06:12:07.290Z,8.73
2019-03-20T06:14:55.925Z,11.48
2019-03-20T06:17:46.730Z,16.03
2019-03-20T06:20:34.390Z,8.40
2019-03-20T06:23:22.502Z,15.28
2019-03-20T06:26:11.564Z,7.50
2019-03-20T06:29:00.146Z,8.25
2019-03-20T06:31:48.380Z,8.50
2019-03-20T06:34:37.239Z,10.25
2019-03-20T06:37:32.548Z,8.78
2019-03-20T06:40:16.672Z,9.65
2019-03-20T06:43:05.739Z,9.95
2019-03-20T06:45:54.096Z,10.72
2019-03-20T06:48:44.255Z,10.40
2019-03-20T06:51:32.548Z,8.53
2019-03-20T06:54:20.850Z,8.48
2019-03-20T06:57:09.524Z,11.30
2019-03-20T07:00:48.076Z,8.25
2019-03-20T07:03:52.609Z,10.00
2019-03-20T07:06:49.169Z,9.45
2019-03-20T07:09:52.150Z,9.15
2019-03-20T07:12:40.536Z,17.32
2019-03-20T07:15:29.021Z,11.73
2019-03-20T07:18:18.224Z,13.58
2019-03-20T07:21:06.813Z,14.10
2019-03-20T07:23:55.639Z,11.95
2019-03-20T07:26:44.478Z,14.23
2019-03-20T07:29:33.250Z,17.12
2019-03-20T07:32:21.561Z,10.83
2019-03-20T07:35:10.109Z,9.50
2019-03-20T07:37:58.506Z,15.45
2019-03-20T07:40:47.542Z,12.20
2019-03-20T07:43:35.779Z,16.87
2019-03-20T07:46:24.433Z,11.80
2019-03-20T07:49:12.451Z,9.93
2019-03-20T07:52:01.125Z,10.00
2019-03-20T07:54:50.361Z,11.48
2019-03-20T07:57:39.188Z,18.75
2019-03-20T08:00:28.096Z,11.18
2019-03-20T08:03:17.015Z,15.23
2019-03-20T08:06:06.005Z,9.63
2019-03-20T08:08:54.176Z,11.38
2019-03-20T08:11:43.077Z,11.63
2019-03-20T08:14:31.499Z,11.83
2019-03-20T08:17:19.997Z,11.17
2019-03-20T08:20:10.185Z,16.40
2019-03-20T08:22:58.382Z,7.60
2019-03-20T08:25:47.028Z,10.25
2019-03-20T08:28:35.261Z,8.78
2019-03-20T08:31:24.295Z,7.67
2019-03-20T08:34:12.654Z,7.92
2019-03-20T08:37:02.443Z,8.03
2019-03-20T08:39:51.426Z,9.50
2019-03-20T08:42:40.563Z,8.85
2019-03-20T08:45:29.508Z,7.70
2019-03-20T08:48:17.766Z,9.33
2019-03-20T08:51:06.476Z,5.85
2019-03-20T08:53:56.345Z,7.58
2019-03-20T08:56:44.991Z,5.97
2019-03-20T08:59:34.181Z,9.50
2019-03-20T09:02:22.759Z,8.93
2019-03-20T09:05:11.341Z,6.05
2019-03-20T09:08:00.243Z,8.88
2019-03-20T09:10:49.181Z,8.50
2019-03-20T09:13:37.949Z,6.53
2019-03-20T09:16:26.339Z,9.47
2019-03-20T09:19:14.720Z,6.35
2019-03-20T09:22:03.590Z,9.45
2019-03-20T09:24:51.968Z,6.35
2019-03-20T09:27:40.960Z,3.20
2019-03-20T09:30:30.182Z,5.10
2019-03-20T09:33:19.250Z,4.25
2019-03-20T09:36:07.892Z,4.83
2019-03-20T09:38:56.246Z,6.40
2019-03-20T09:41:45.313Z,4.85
2019-03-20T09:44:34.097Z,5.95
2019-03-20T09:47:22.870Z,3.50
2019-03-20T09:50:12.978Z,6.15
2019-03-20T09:53:02.131Z,7.08
2019-03-20T09:55:50.565Z,3.42
2019-03-20T09:58:38.733Z,2.92
2019-03-20T10:01:28.082Z,5.80
2019-03-20T10:04:16.503Z,4.45
2019-03-20T10:07:05.115Z,4.30
2019-03-20T10:09:53.536Z,5.97
2019-03-20T10:12:42.442Z,7.12
2019-03-20T10:15:30.794Z,4.05
2019-03-20T10:18:19.295Z,4.90
2019-03-20T10:21:07.473Z,4.70
2019-03-20T10:23:56.807Z,4.92
2019-03-20T10:26:45.488Z,3.45
2019-03-20T10:29:33.954Z,7.42
2019-03-20T10:32:22.534Z,5.40
2019-03-20T10:35:11.701Z,3.15
2019-03-20T10:38:00.394Z,7.10
2019-03-20T10:40:50.349Z,3.35
2019-03-20T10:43:39.351Z,3.00
2019-03-20T10:46:28.027Z,4.00
2019-03-20T10:49:16.579Z,3.00
2019-03-20T10:52:05.550Z,7.22
2019-03-20T10:54:54.043Z,3.00
2019-03-20T10:57:43.162Z,6.03
2019-03-20T11:00:31.959Z,4.53
2019-03-20T11:03:20.645Z,5.42
2019-03-20T11:06:09.224Z,5.17
2019-03-20T11:08:57.763Z,7.17
2019-03-20T11:11:46.039Z,8.33
2019-03-20T11:14:34.675Z,6.20
2019-03-20T11:17:23.665Z,3.73
2019-03-20T11:20:13.543Z,4.50
2019-03-20T11:23:01.429Z,2.98
2019-03-20T11:25:50.567Z,5.42
2019-03-20T11:28:39.622Z,3.62
2019-03-20T11:31:28.274Z,5.53
2019-03-20T11:34:17.434Z,4.78
2019-03-20T11:37:05.900Z,5.60
2019-03-20T11:39:54.963Z,6.00
2019-03-20T11:42:43.651Z,4.85
2019-03-20T11:45:32.415Z,5.28
2019-03-20T11:48:20.965Z,5.25
2019-03-20T11:51:10.161Z,5.50
2019-03-20T11:54:01.542Z,3.67
2019-03-20T11:56:50.552Z,8.85
2019-03-20T11:59:38.787Z,4.25
2019-03-20T12:02:28.649Z,4.07
2019-03-20T12:05:17.654Z,3.58
2019-03-20T12:08:05.893Z,3.67
2019-03-20T12:10:54.706Z,3.58
2019-03-20T12:13:43.457Z,4.87
2019-03-20T12:16:32.404Z,3.97
2019-03-20T12:19:20.960Z,4.35
2019-03-20T12:22:10.229Z,6.05
2019-03-20T12:24:59.175Z,4.70
2019-03-20T12:27:47.871Z,3.67
2019-03-20T12:30:36.421Z,5.17
2019-03-20T12:33:25.087Z,2.83
2019-03-20T12:36:13.831Z,5.43
2019-03-20T12:39:02.470Z,4.80
2019-03-20T12:41:51.067Z,5.23
2019-03-20T12:44:39.612Z,3.77
2019-03-20T12:47:28.818Z,4.67
2019-03-20T12:50:17.458Z,5.67
2019-03-20T12:53:06.413Z,5.87
2019-03-20T12:55:58.700Z,7.90
2019-03-20T12:58:47.112Z,5.80
2019-03-20T13:01:36.416Z,8.10
2019-03-20T13:04:25.249Z,7.00
2019-03-20T13:07:17.895Z,4.40
2019-03-20T13:10:07.610Z,5.53
2019-03-20T13:12:56.868Z,4.47
2019-03-20T13:15:45.849Z,6.70
2019-03-20T13:18:34.138Z,6.80
2019-03-20T13:21:22.745Z,3.93
2019-03-20T13:24:11.038Z,7.10
2019-03-20T13:26:59.427Z,4.77
2019-03-20T13:29:51.051Z,3.60
2019-03-20T13:32:40.127Z,5.83
2019-03-20T13:35:28.300Z,4.20
2019-03-20T13:38:19.916Z,4.20
2019-03-20T13:41:08.714Z,5.43
2019-03-20T13:43:57.903Z,7.03
2019-03-20T13:46:47.123Z,4.33
2019-03-20T13:49:37.785Z,4.50
2019-03-20T13:52:26.370Z,6.20
2019-03-20T13:55:15.434Z,4.80
2019-03-20T13:58:04.773Z,3.30
2019-03-20T14:00:53.444Z,3.77
2019-03-20T14:03:42.378Z,5.60
2019-03-20T14:06:30.543Z,5.93
2019-03-20T14:09:19.108Z,3.30
2019-03-20T14:12:07.498Z,6.67
2019-03-20T14:14:56.599Z,4.93
2019-03-20T14:17:48.572Z,5.07
2019-03-20T14:20:37.155Z,5.57
2019-03-20T14:23:26.103Z,6.83
2019-03-20T14:26:14.514Z,3.20
2019-03-20T14:29:03.317Z,5.37
2019-03-20T14:31:52.259Z,4.97
2019-03-20T14:34:40.571Z,4.80
2019-03-20T14:37:28.727Z,4.13
2019-03-20T14:40:18.840Z,3.57
2019-03-20T14:43:07.375Z,5.67
2019-03-20T14:45:56.616Z,10.37
2019-03-20T14:48:45.454Z,5.70
2019-03-20T14:51:33.977Z,5.67
2019-03-20T14:54:22.867Z,4.63
2019-03-20T14:57:11.383Z,5.20
2019-03-20T14:59:59.498Z,7.20
2019-03-20T15:02:48.349Z,6.53
2019-03-20T15:05:37.402Z,4.87
2019-03-20T15:08:28.964Z,3.80
2019-03-20T15:11:18.125Z,5.63
2019-03-20T15:14:17.139Z,8.00
2019-03-20T15:17:06.156Z,4.30
2019-03-20T15:19:54.972Z,4.23
2019-03-20T15:22:44.033Z,9.40
2019-03-20T15:25:32.916Z,6.33
2019-03-20T15:28:21.585Z,5.57
2019-03-20T15:31:10.421Z,5.27
2019-03-20T15:33:59.208Z,5.00
2019-03-20T15:36:48.256Z,5.70
2019-03-20T15:39:36.997Z,7.00
2019-03-20T15:42:26.142Z,4.93
2019-03-20T15:45:15.293Z,4.83
2019-03-20T15:48:03.230Z,6.90
2019-03-20T15:50:52.255Z,4.60
2019-03-20T15:53:41.286Z,4.53
2019-03-20T15:56:30.155Z,3.93
2019-03-20T15:59:18.600Z,6.93
2019-03-20T16:02:07.041Z,3.83
2019-03-20T16:04:55.441Z,4.37
2019-03-20T16:07:44.877Z,8.77
2019-03-20T16:10:34.049Z,6.93
2019-03-20T16:13:22.698Z,5.23
2019-03-20T16:16:11.008Z,9.40
2019-03-20T16:18:59.632Z,7.97
2019-03-20T16:21:48.513Z,7.10
2019-03-20T16:24:37.841Z,7.77
2019-03-20T16:27:26.835Z,7.20
2019-03-20T16:30:20.153Z,7.60
2019-03-20T16:33:08.355Z,4.00
2019-03-20T16:35:56.810Z,5.20
2019-03-20T16:38:45.707Z,4.43
2019-03-20T16:41:33.844Z,6.30
2019-03-20T16:44:22.156Z,5.73
2019-03-20T16:47:11.493Z,7.25
2019-03-20T16:50:00.496Z,7.07
2019-03-20T16:52:49.037Z,7.03
2019-03-20T16:55:38.056Z,7.53
2019-03-20T16:58:26.906Z,6.70
2019-03-20T17:01:15.584Z,3.63
2019-03-20T17:04:04.434Z,6.60
2019-03-20T17:06:53.034Z,5.80
2019-03-20T17:09:41.706Z,6.30
2019-03-20T17:12:30.677Z,5.83
2019-03-20T17:15:21.057Z,3.90
2019-03-20T17:18:09.713Z,5.83
2019-03-20T17:20:58.465Z,5.50
2019-03-20T17:23:47.634Z,5.47
2019-03-20T17:26:36.371Z,3.70
2019-03-20T17:29:24.611Z,4.50
2019-03-20T17:32:12.938Z,5.33
2019-03-20T17:35:01.894Z,4.37
2019-03-20T17:37:50.962Z,8.23
2019-03-20T17:40:39.833Z,5.50
2019-03-20T17:43:31.312Z,5.25
2019-03-20T17:46:21.716Z,6.33
2019-03-20T17:49:10.857Z,6.85
2019-03-20T17:51:59.647Z,5.03
2019-03-20T17:54:48.536Z,8.00
2019-03-20T17:57:37.391Z,8.08
2019-03-20T18:00:40.683Z,6.18
2019-03-20T18:03:29.577Z,6.00
2019-03-20T18:06:18.925Z,6.35
2019-03-20T18:09:09.367Z,5.95
2019-03-20T18:11:58.726Z,10.08
2019-03-20T18:14:47.211Z,5.35
2019-03-20T18:17:36.520Z,6.00
2019-03-20T18:20:25.789Z,5.22
2019-03-20T18:23:14.944Z,6.37
2019-03-20T18:26:03.799Z,9.15
2019-03-20T18:28:52.763Z,6.15
2019-03-20T18:31:45.961Z,7.90
2019-03-20T18:34:32.231Z,5.45
2019-03-20T18:37:21.436Z,8.35
2019-03-20T18:40:11.988Z,6.37
2019-03-20T18:43:00.974Z,6.80
2019-03-20T18:45:52.406Z,5.33
2019-03-20T18:48:42.512Z,4.65
2019-03-20T18:51:31.543Z,7.53
2019-03-20T18:54:20.606Z,7.28
2019-03-20T18:57:09.505Z,7.60
2019-03-20T18:59:58.484Z,8.55
2019-03-20T19:02:47.097Z,7.10
2019-03-20T19:05:52.489Z,11.50
2019-03-20T19:08:41.769Z,7.90
2019-03-20T19:11:30.867Z,9.88
2019-03-20T19:14:20.387Z,9.83
2019-03-20T19:17:09.279Z,11.77
2019-03-20T19:19:58.204Z,10.80
2019-03-20T19:22:47.024Z,14.05
2019-03-20T19:25:38.981Z,14.03
2019-03-20T19:28:27.527Z,16.62
2019-03-20T19:31:17.107Z,12.77
2019-03-20T19:34:05.493Z,11.28
2019-03-20T19:36:54.573Z,9.55
2019-03-20T19:39:44.077Z,6.60
2019-03-20T19:42:33.058Z,10.60
2019-03-20T19:45:21.594Z,8.65
2019-03-20T19:48:10.979Z,9.73
2019-03-20T19:50:59.786Z,9.13
2019-03-20T19:53:48.824Z,15.10
2019-03-20T19:56:37.807Z,11.45
2019-03-20T19:59:26.841Z,12.10
2019-03-20T20:02:15.082Z,14.00
2019-03-20T20:05:15.028Z,9.50
2019-03-20T20:07:54.758Z,10.13
2019-03-20T20:10:43.983Z,13.53
2019-03-20T20:13:32.301Z,14.78
2019-03-20T20:16:21.026Z,18.00
2019-03-20T20:19:10.165Z,9.28
2019-03-20T20:21:58.613Z,15.28
2019-03-20T20:24:47.589Z,8.73
2019-03-20T20:27:36.372Z,11.22
2019-03-20T20:30:25.426Z,9.93
2019-03-20T20:33:14.595Z,11.55
2019-03-20T20:36:03.242Z,12.18
2019-03-20T20:38:51.845Z,13.18
2019-03-20T20:41:40.603Z,13.83
2019-03-20T20:44:29.771Z,15.20
2019-03-20T20:47:18.631Z,23.03
2019-03-20T20:50:07.817Z,24.60
2019-03-20T20:52:56.792Z,19.73
2019-03-20T20:55:46.187Z,16.90
2019-03-20T20:58:34.868Z,19.85
2019-03-20T21:01:23.272Z,18.60
2019-03-20T21:04:12.148Z,18.20
2019-03-20T21:07:00.900Z,21.33
2019-03-20T21:09:50.188Z,17.75
2019-03-20T21:12:39.566Z,20.92
2019-03-20T21:15:42.452Z,16.27
2019-03-20T21:19:15.853Z,21.82
2019-03-20T21:22:43.254Z,15.65
2019-03-20T21:25:32.191Z,19.92
2019-03-20T21:29:05.938Z,15.55
2019-03-20T21:32:00.521Z,15.83
2019-03-20T21:35:39.120Z,13.53
2019-03-20T21:38:25.765Z,13.72
2019-03-20T21:42:11.137Z,16.73
2019-03-20T21:45:31.644Z,10.93
2019-03-20T21:48:20.917Z,13.25
2019-03-20T21:51:17.943Z,9.90
2019-03-20T21:54:44.482Z,14.75
2019-03-20T21:58:04.585Z,13.10
2019-03-20T22:01:32.087Z,13.27
2019-03-20T22:04:20.820Z,9.45
2019-03-20T22:07:10.896Z,14.38
2019-03-20T22:10:41.156Z,17.05
2019-03-20T22:13:37.052Z,14.75
2019-03-20T22:17:11.735Z,12.10
2019-03-20T22:20:13.390Z,15.95
2019-03-20T22:23:30.753Z,20.08
2019-03-20T22:26:55.260Z,21.02
2019-03-20T22:29:44.599Z,21.68
2019-03-20T22:33:23.719Z,25.33
2019-03-20T22:36:26.929Z,28.55
2019-03-20T22:39:54.499Z,19.20
2019-03-20T22:42:51.759Z,17.95
2019-03-20T22:46:17.449Z,15.90
2019-03-20T22:49:56.223Z,18.17
2019-03-20T22:53:12.082Z,14.60
2019-03-20T22:56:18.760Z,13.65
2019-03-20T22:59:08.168Z,14.87
2019-03-20T23:02:27.544Z,17.77
2019-03-20T23:05:16.445Z,11.60
2019-03-20T23:08:12.449Z,15.13
2019-03-20T23:11:01.416Z,14.68
2019-03-20T23:13:50.517Z,10.95
2019-03-20T23:16:39.524Z,12.70
2019-03-20T23:19:29.024Z,11.65
2019-03-20T23:22:18.089Z,12.80
2019-03-20T23:25:07.691Z,14.25
2019-03-20T23:27:56.935Z,24.10
2019-03-20T23:30:45.950Z,31.12
2019-03-20T23:33:34.976Z,55.75
2019-03-20T23:36:24.527Z,35.40
2019-03-20T23:39:13.588Z,49.33
2019-03-20T23:42:02.760Z,43.90
2019-03-20T23:44:51.779Z,35.98
2019-03-20T23:48:00.258Z,21.70
2019-03-20T23:50:51.763Z,20.30
2019-03-20T23:53:45.173Z,13.32
2019-03-20T23:56:35.288Z,10.03
2019-03-20T23:59:23.990Z,10.95
